createdAt,value
2018-02-24T00:00:16.747Z,13.20
2018-02-24T00:02:45.153Z,12.57
2018-02-24T00:05:14.532Z,12.40
2018-02-24T00:07:42.915Z,12.90
2018-02-24T00:10:11.383Z,13.40
2018-02-24T00:12:40.714Z,11.98
2018-02-24T00:15:09.129Z,13.35
2018-02-24T00:17:37.527Z,13.88
2018-02-24T00:20:06.797Z,12.50
2018-02-24T00:22:44.685Z,13.85
2018-02-24T00:25:13.101Z,12.45
2018-02-24T00:27:41.481Z,13.88
2018-02-24T00:30:09.918Z,11.35
2018-02-24T00:32:38.336Z,13.65
2018-02-24T00:35:06.834Z,12.93
2018-02-24T00:37:35.264Z,15.98
2018-02-24T00:40:03.655Z,13.02
2018-02-24T00:42:32.831Z,12.85
2018-02-24T00:45:01.219Z,13.93
2018-02-24T00:47:30.399Z,13.40
2018-02-24T00:49:58.791Z,13.82
2018-02-24T00:52:27.975Z,12.55
2018-02-24T00:54:56.346Z,14.15
2018-02-24T00:57:25.585Z,14.15
2018-02-24T00:59:54.835Z,13.57
2018-02-24T01:02:23.218Z,15.25
2018-02-24T01:04:51.606Z,14.40
2018-02-24T01:07:20.020Z,17.62
2018-02-24T01:09:49.176Z,15.38
2018-02-24T01:12:17.581Z,13.95
2018-02-24T01:14:46.005Z,13.73
2018-02-24T01:17:14.405Z,13.98
2018-02-24T01:19:42.974Z,14.02
2018-02-24T01:22:11.400Z,15.98
2018-02-24T01:24:39.949Z,15.07
2018-02-24T01:27:08.339Z,17.60
2018-02-24T01:29:36.734Z,14.05
2018-02-24T01:32:05.135Z,15.05
2018-02-24T01:34:33.535Z,16.58
2018-02-24T01:37:02.715Z,19.30
2018-02-24T01:39:31.095Z,18.40
2018-02-24T01:41:59.498Z,19.92
2018-02-24T01:44:28.651Z,19.95
2018-02-24T01:46:57.102Z,22.48
2018-02-24T01:49:25.740Z,19.15
2018-02-24T01:51:54.159Z,18.27
2018-02-24T01:54:22.575Z,19.80
2018-02-24T01:56:51.047Z,19.23
2018-02-24T01:59:19.470Z,17.40
2018-02-24T02:01:48.661Z,17.17
2018-02-24T02:04:18.119Z,14.65
2018-02-24T02:06:46.520Z,14.73
2018-02-24T02:09:14.914Z,13.88
2018-02-24T02:11:43.462Z,14.38
2018-02-24T02:14:11.926Z,15.57
2018-02-24T02:16:40.332Z,14.95
2018-02-24T02:19:08.720Z,14.75
2018-02-24T02:21:37.158Z,15.60
2018-02-24T02:24:06.358Z,15.05
2018-02-24T02:26:34.740Z,14.15
2018-02-24T02:29:03.913Z,15.75
2018-02-24T02:31:32.295Z,14.80
2018-02-24T02:34:01.694Z,14.48
2018-02-24T02:36:30.052Z,17.17
2018-02-24T02:38:58.512Z,15.45
2018-02-24T02:41:27.030Z,15.65
2018-02-24T02:43:56.205Z,13.15
2018-02-24T02:46:24.596Z,16.12
2018-02-24T02:48:53.013Z,14.38
2018-02-24T02:51:22.177Z,14.65
2018-02-24T02:53:50.568Z,14.18
2018-02-24T02:56:18.958Z,13.10
2018-02-24T02:58:47.335Z,13.23
2018-02-24T03:01:15.759Z,13.90
2018-02-24T03:03:44.140Z,16.27
2018-02-24T03:06:12.560Z,14.32
2018-02-24T03:08:40.982Z,13.55
2018-02-24T03:11:09.399Z,13.38
2018-02-24T03:13:37.783Z,15.65
2018-02-24T03:16:06.175Z,16.05
2018-02-24T03:18:34.561Z,14.00
2018-02-24T03:21:03.009Z,15.32
2018-02-24T03:23:31.395Z,13.35
2018-02-24T03:25:59.823Z,14.75
2018-02-24T03:28:28.984Z,13.73
2018-02-24T03:30:58.290Z,15.02
2018-02-24T03:33:26.674Z,14.87
2018-02-24T03:35:55.065Z,14.05
2018-02-24T03:38:23.463Z,14.15
2018-02-24T03:40:51.994Z,14.27
2018-02-24T03:43:20.488Z,14.40
2018-02-24T03:45:54.299Z,14.20
2018-02-24T03:48:22.860Z,14.18
2018-02-24T03:50:51.237Z,14.23
2018-02-24T03:53:19.631Z,13.02
2018-02-24T03:55:48.006Z,12.70
2018-02-24T03:58:16.415Z,14.30
2018-02-24T04:00:44.847Z,13.88
2018-02-24T04:03:13.292Z,12.65
2018-02-24T04:05:42.461Z,13.95
2018-02-24T04:08:10.951Z,14.18
2018-02-24T04:10:39.323Z,13.35
2018-02-24T04:13:07.728Z,12.88
2018-02-24T04:15:36.110Z,12.43
2018-02-24T04:18:04.515Z,13.15
2018-02-24T04:20:33.681Z,12.10
2018-02-24T04:23:02.048Z,13.77
2018-02-24T04:25:31.268Z,12.95
2018-02-24T04:27:59.872Z,13.85
2018-02-24T04:30:28.289Z,12.18
2018-02-24T04:32:56.698Z,12.70
2018-02-24T04:35:25.178Z,11.27
2018-02-24T04:37:53.619Z,12.57
2018-02-24T04:40:22.795Z,13.57
2018-02-24T04:42:52.240Z,13.77
2018-02-24T04:45:20.614Z,12.75
2018-02-24T04:47:49.318Z,12.20
2018-02-24T04:50:17.851Z,13.82
2018-02-24T04:52:46.231Z,12.98
2018-02-24T04:55:15.402Z,13.20
2018-02-24T04:57:43.807Z,12.80
2018-02-24T05:00:12.993Z,13.30
2018-02-24T05:02:41.404Z,11.02
2018-02-24T05:05:10.600Z,11.65
2018-02-24T05:07:38.974Z,11.25
2018-02-24T05:10:08.151Z,12.88
2018-02-24T05:12:36.542Z,12.25
2018-02-24T05:15:04.932Z,12.52
2018-02-24T05:17:33.383Z,12.32
2018-02-24T05:20:01.896Z,12.13
2018-02-24T05:22:30.279Z,10.93
2018-02-24T05:24:59.451Z,13.30
2018-02-24T05:27:27.845Z,12.50
2018-02-24T05:29:56.279Z,12.30
2018-02-24T05:32:24.657Z,12.02
2018-02-24T05:34:53.062Z,12.27
2018-02-24T05:37:21.507Z,11.75
2018-02-24T05:39:49.922Z,12.35
2018-02-24T05:42:18.303Z,12.10
2018-02-24T05:44:46.708Z,13.38
2018-02-24T05:47:15.126Z,10.40
2018-02-24T05:49:44.565Z,13.15
2018-02-24T05:52:12.966Z,12.70
2018-02-24T05:54:41.365Z,11.27
2018-02-24T05:57:10.512Z,12.07
2018-02-24T05:59:38.930Z,12.25
2018-02-24T06:02:07.479Z,11.40
2018-02-24T06:04:35.893Z,11.65
2018-02-24T06:07:04.332Z,11.77
2018-02-24T06:09:32.712Z,13.45
2018-02-24T06:12:01.279Z,11.50
2018-02-24T06:14:30.481Z,11.73
2018-02-24T06:16:59.653Z,14.07
2018-02-24T06:19:28.038Z,11.88
2018-02-24T06:21:57.291Z,13.65
2018-02-24T06:24:25.668Z,14.20
2018-02-24T06:26:54.188Z,13.55
2018-02-24T06:29:22.611Z,10.73
2018-02-24T06:31:52.139Z,12.00
2018-02-24T06:34:21.918Z,12.57
2018-02-24T06:36:53.316Z,13.25
2018-02-24T06:39:21.888Z,13.52
2018-02-24T06:41:50.446Z,11.98
2018-02-24T06:44:20.936Z,12.65
2018-02-24T06:46:49.384Z,15.73
2018-02-24T06:49:18.095Z,14.45
2018-02-24T06:51:46.541Z,11.45
2018-02-24T06:54:15.730Z,15.75
2018-02-24T06:56:57.975Z,12.63
2018-02-24T06:59:27.329Z,12.30
2018-02-24T07:01:56.542Z,13.20
2018-02-24T07:04:26.040Z,17.08
2018-02-24T07:06:55.195Z,15.77
2018-02-24T07:09:23.584Z,12.75
2018-02-24T07:11:52.036Z,15.38
2018-02-24T07:14:20.442Z,11.75
2018-02-24T07:16:48.846Z,12.55
2018-02-24T07:19:17.278Z,14.07
2018-02-24T07:21:45.670Z,15.05
2018-02-24T07:24:14.111Z,9.95
2018-02-24T07:26:42.474Z,11.27
2018-02-24T07:29:12.668Z,10.57
2018-02-24T07:31:41.159Z,10.77
2018-02-24T07:34:09.556Z,9.77
2018-02-24T07:36:38.219Z,10.70
2018-02-24T07:39:06.606Z,9.35
2018-02-24T07:41:35.003Z,8.65
2018-02-24T07:44:03.440Z,9.80
2018-02-24T07:46:31.884Z,9.68
2018-02-24T07:49:01.075Z,12.25
2018-02-24T07:51:30.284Z,9.43
2018-02-24T07:53:59.834Z,10.13
2018-02-24T07:56:28.258Z,10.10
2018-02-24T07:58:56.659Z,9.18
2018-02-24T08:01:25.839Z,10.55
2018-02-24T08:03:54.279Z,8.77
2018-02-24T08:06:22.675Z,9.00
2018-02-24T08:08:51.059Z,8.45
2018-02-24T08:11:20.403Z,10.13
2018-02-24T08:13:48.807Z,8.63
2018-02-24T08:16:17.979Z,8.50
2018-02-24T08:18:46.420Z,9.25
2018-02-24T08:21:14.811Z,8.60
2018-02-24T08:23:43.240Z,9.35
2018-02-24T08:26:12.412Z,7.32
2018-02-24T08:28:40.837Z,8.18
2018-02-24T08:31:09.236Z,8.02
2018-02-24T08:33:37.826Z,7.18
2018-02-24T08:36:06.252Z,7.43
2018-02-24T08:38:35.448Z,6.82
2018-02-24T08:41:03.884Z,7.18
2018-02-24T08:43:32.310Z,7.00
2018-02-24T08:46:00.748Z,8.43
2018-02-24T08:48:29.154Z,7.20
2018-02-24T08:50:57.524Z,8.10
2018-02-24T08:53:25.959Z,9.00
2018-02-24T08:55:54.459Z,7.60
2018-02-24T08:58:22.851Z,7.65
2018-02-24T09:00:51.276Z,7.90
2018-02-24T09:03:20.474Z,7.15
2018-02-24T09:05:49.285Z,8.60
2018-02-24T09:08:17.786Z,7.95
2018-02-24T09:10:46.425Z,6.80
2018-02-24T09:13:14.818Z,7.00
2018-02-24T09:15:43.979Z,7.80
2018-02-24T09:18:12.391Z,6.60
2018-02-24T09:20:41.580Z,10.23
2018-02-24T09:23:09.999Z,7.75
2018-02-24T09:25:38.413Z,6.78
2018-02-24T09:28:17.764Z,9.50
2018-02-24T09:30:46.329Z,9.32
2018-02-24T09:33:14.970Z,9.27
2018-02-24T09:35:44.875Z,8.05
2018-02-24T09:38:14.093Z,6.80
2018-02-24T09:41:02.037Z,7.62
2018-02-24T09:43:30.535Z,8.18
2018-02-24T09:45:58.903Z,8.85
2018-02-24T09:48:27.295Z,9.38
2018-02-24T09:50:55.895Z,9.40
2018-02-24T09:53:24.296Z,6.40
2018-02-24T09:55:52.735Z,8.60
2018-02-24T09:58:21.814Z,6.43
2018-02-24T10:00:50.980Z,7.37
2018-02-24T10:03:19.407Z,7.32
2018-02-24T10:05:47.783Z,4.72
2018-02-24T10:08:16.200Z,6.75
2018-02-24T10:10:44.675Z,8.15
2018-02-24T10:13:14.160Z,7.30
2018-02-24T10:15:42.563Z,7.95
2018-02-24T10:18:11.072Z,7.32
2018-02-24T10:20:39.625Z,7.05
2018-02-24T10:23:08.412Z,6.28
2018-02-24T10:25:36.871Z,7.97
2018-02-24T10:28:06.061Z,6.40
2018-02-24T10:30:34.558Z,6.60
2018-02-24T10:33:03.117Z,6.40
2018-02-24T10:35:45.757Z,8.10
2018-02-24T10:38:14.320Z,7.40
2018-02-24T10:40:45.514Z,7.97
2018-02-24T10:43:13.898Z,7.60
2018-02-24T10:45:42.317Z,7.70
2018-02-24T10:48:11.488Z,4.72
2018-02-24T10:50:40.064Z,5.50
2018-02-24T10:53:08.483Z,7.53
2018-02-24T10:55:36.977Z,5.30
2018-02-24T10:58:05.564Z,5.65
2018-02-24T11:00:33.967Z,6.95
2018-02-24T11:03:03.172Z,6.90
2018-02-24T11:05:31.636Z,4.85
2018-02-24T11:08:01.011Z,5.40
2018-02-24T11:10:29.421Z,5.85
2018-02-24T11:12:58.689Z,6.80
2018-02-24T11:15:28.050Z,6.40
2018-02-24T11:17:56.448Z,5.62
2018-02-24T11:20:24.883Z,6.55
2018-02-24T11:22:53.294Z,6.25
2018-02-24T11:25:21.768Z,5.72
2018-02-24T11:27:50.926Z,5.97
2018-02-24T11:30:19.316Z,5.60
2018-02-24T11:32:47.717Z,8.73
2018-02-24T11:35:16.102Z,5.55
2018-02-24T11:37:44.480Z,6.82
2018-02-24T11:40:13.151Z,6.60
2018-02-24T11:42:41.797Z,7.10
2018-02-24T11:45:10.270Z,6.47
2018-02-24T11:47:39.600Z,7.45
2018-02-24T11:50:08.253Z,7.05
2018-02-24T11:52:36.753Z,6.90
2018-02-24T11:55:05.912Z,6.32
2018-02-24T11:57:35.049Z,4.72
2018-02-24T12:00:04.215Z,4.05
2018-02-24T12:02:32.614Z,4.70
2018-02-24T12:05:01.935Z,6.78
2018-02-24T12:07:31.384Z,6.30
2018-02-24T12:09:59.805Z,6.35
2018-02-24T12:12:29.014Z,5.85
2018-02-24T12:14:57.655Z,5.50
2018-02-24T12:17:26.136Z,5.78
2018-02-24T12:19:54.860Z,5.15
2018-02-24T12:22:27.069Z,4.53
2018-02-24T12:24:55.946Z,4.87
2018-02-24T12:27:27.652Z,6.43
2018-02-24T12:29:56.103Z,6.20
2018-02-24T12:32:24.585Z,4.95
2018-02-24T12:34:53.167Z,5.70
2018-02-24T12:37:21.584Z,5.72
2018-02-24T12:39:50.012Z,4.50
2018-02-24T12:42:19.198Z,6.18
2018-02-24T12:44:48.395Z,6.00
2018-02-24T12:47:17.325Z,5.53
2018-02-24T12:49:45.879Z,6.28
2018-02-24T12:52:15.061Z,6.15
2018-02-24T12:54:43.518Z,5.72
2018-02-24T12:57:11.930Z,6.50
2018-02-24T12:59:40.404Z,7.20
2018-02-24T13:02:08.783Z,6.25
2018-02-24T13:04:38.118Z,7.10
2018-02-24T13:07:07.489Z,5.90
2018-02-24T13:09:35.947Z,6.32
2018-02-24T13:12:04.486Z,4.47
2018-02-24T13:14:33.637Z,6.40
2018-02-24T13:17:02.064Z,5.85
2018-02-24T13:19:31.374Z,6.07
2018-02-24T13:22:00.782Z,6.20
2018-02-24T13:24:29.207Z,6.00
2018-02-24T13:26:58.003Z,5.60
2018-02-24T13:29:26.456Z,5.35
2018-02-24T13:31:54.842Z,5.50
2018-02-24T13:34:23.247Z,5.43
2018-02-24T13:36:52.047Z,5.35
2018-02-24T13:39:20.632Z,6.10
2018-02-24T13:41:49.022Z,4.55
2018-02-24T13:44:17.465Z,5.30
2018-02-24T13:46:45.896Z,4.50
2018-02-24T13:49:14.291Z,6.62
2018-02-24T13:51:42.733Z,4.60
2018-02-24T13:54:11.156Z,5.82
2018-02-24T13:56:39.573Z,6.55
2018-02-24T13:59:07.983Z,5.37
2018-02-24T14:01:36.425Z,6.20
2018-02-24T14:04:05.681Z,5.93
2018-02-24T14:06:34.106Z,6.78
2018-02-24T14:09:03.320Z,5.95
2018-02-24T14:11:33.259Z,4.85
2018-02-24T14:14:01.661Z,6.55
2018-02-24T14:16:30.056Z,5.82
2018-02-24T14:18:58.464Z,5.00
2018-02-24T14:21:27.819Z,4.45
2018-02-24T14:23:56.208Z,3.25
2018-02-24T14:26:24.660Z,5.25
2018-02-24T14:28:53.154Z,4.93
2018-02-24T14:31:21.778Z,5.20
2018-02-24T14:33:50.482Z,4.95
2018-02-24T14:36:18.887Z,5.18
2018-02-24T14:38:48.439Z,3.70
2018-02-24T14:41:16.847Z,4.15
2018-02-24T14:43:45.366Z,4.35
2018-02-24T14:46:14.184Z,4.75
2018-02-24T14:48:44.576Z,4.12
2018-02-24T14:51:13.771Z,4.72
2018-02-24T14:53:43.050Z,4.07
2018-02-24T14:56:12.340Z,3.33
2018-02-24T14:58:40.742Z,4.15
2018-02-24T15:01:09.120Z,4.53
2018-02-24T15:03:37.507Z,3.85
2018-02-24T15:06:06.043Z,3.90
2018-02-24T15:08:34.477Z,3.00
2018-02-24T15:11:03.803Z,3.95
2018-02-24T15:13:32.959Z,4.43
2018-02-24T15:16:01.420Z,3.80
2018-02-24T15:18:29.839Z,3.70
2018-02-24T15:20:58.392Z,4.30
2018-02-24T15:23:27.610Z,3.83
2018-02-24T15:25:56.021Z,3.90
2018-02-24T15:28:25.290Z,4.30
2018-02-24T15:30:53.714Z,4.68
2018-02-24T15:33:22.850Z,3.42
2018-02-24T15:35:51.333Z,4.97
2018-02-24T15:38:19.715Z,4.05
2018-02-24T15:40:48.287Z,4.55
2018-02-24T15:43:16.696Z,4.25
2018-02-24T15:45:45.246Z,4.45
2018-02-24T15:48:13.632Z,5.40
2018-02-24T15:50:42.098Z,3.53
2018-02-24T15:53:10.750Z,3.17
2018-02-24T15:55:39.199Z,4.53
2018-02-24T15:58:07.606Z,4.00
2018-02-24T16:00:36.150Z,5.03
2018-02-24T16:03:04.700Z,7.05
2018-02-24T16:08:26.810Z,4.93
2018-02-24T16:10:55.582Z,4.12
2018-02-24T16:13:24.183Z,4.75
2018-02-24T16:15:52.746Z,4.97
2018-02-24T16:18:24.435Z,5.18
2018-02-24T16:20:53.102Z,5.10
2018-02-24T16:23:21.611Z,5.22
2018-02-24T16:25:50.040Z,4.70
2018-02-24T16:28:18.636Z,5.32
2018-02-24T16:30:47.376Z,5.57
2018-02-24T16:33:16.545Z,6.05
2018-02-24T16:35:44.981Z,5.62
2018-02-24T16:38:13.518Z,5.80
2018-02-24T16:40:41.934Z,5.80
2018-02-24T16:43:10.520Z,3.08
2018-02-24T16:45:38.943Z,5.37
2018-02-24T16:48:07.468Z,6.37
2018-02-24T16:50:35.870Z,7.10
2018-02-24T16:53:04.306Z,4.55
2018-02-24T16:55:32.865Z,6.18
2018-02-24T16:58:01.271Z,5.43
2018-02-24T17:00:30.691Z,6.40
2018-02-24T17:02:59.979Z,5.45
2018-02-24T17:05:29.209Z,5.82
2018-02-24T17:07:57.587Z,5.65
2018-02-24T17:10:26.107Z,4.50
2018-02-24T17:12:54.516Z,4.32
2018-02-24T17:15:24.512Z,5.47
2018-02-24T17:17:52.901Z,5.03
2018-02-24T17:20:21.287Z,6.75
2018-02-24T17:22:50.563Z,6.93
2018-02-24T17:25:18.982Z,5.07
2018-02-24T17:27:48.140Z,6.75
2018-02-24T17:30:16.573Z,6.95
2018-02-24T17:32:45.762Z,7.78
2018-02-24T17:35:17.243Z,7.15
2018-02-24T17:37:45.719Z,11.52
2018-02-24T17:40:14.183Z,9.52
2018-02-24T17:42:43.381Z,7.18
2018-02-24T17:45:12.704Z,6.93
2018-02-24T17:47:41.087Z,13.20
2018-02-24T17:50:09.476Z,18.40
2018-02-24T17:52:37.979Z,13.32
2018-02-24T17:55:06.492Z,8.13
2018-02-24T17:57:34.903Z,7.65
2018-02-24T18:00:04.023Z,11.20
2018-02-24T18:02:32.432Z,10.55
2018-02-24T18:05:00.820Z,8.88
2018-02-24T18:07:29.238Z,7.78
2018-02-24T18:09:58.527Z,17.62
2018-02-24T18:12:27.779Z,25.85
2018-02-24T18:15:03.723Z,21.17
2018-02-24T18:17:32.532Z,23.83
2018-02-24T18:20:01.165Z,15.70
2018-02-24T18:22:31.016Z,19.05
2018-02-24T18:24:59.456Z,14.35
2018-02-24T18:27:28.811Z,16.05
2018-02-24T18:29:58.406Z,20.80
2018-02-24T18:32:26.901Z,14.27
2018-02-24T18:34:55.497Z,8.48
2018-02-24T18:37:24.057Z,8.75
2018-02-24T18:39:52.623Z,5.95
2018-02-24T18:42:21.287Z,7.53
2018-02-24T18:44:50.479Z,7.45
2018-02-24T18:47:18.987Z,14.38
2018-02-24T18:49:48.166Z,9.18
2018-02-24T18:52:17.411Z,9.30
2018-02-24T18:54:47.563Z,7.05
2018-02-24T18:57:15.970Z,11.20
2018-02-24T18:59:45.250Z,9.40
2018-02-24T19:02:13.656Z,7.37
2018-02-24T19:04:42.808Z,11.23
2018-02-24T19:07:11.240Z,15.32
2018-02-24T19:09:40.474Z,7.28
2018-02-24T19:12:08.893Z,7.20
2018-02-24T19:14:37.436Z,12.20
2018-02-24T19:17:06.585Z,6.03
2018-02-24T19:19:35.033Z,11.23
2018-02-24T19:22:03.861Z,10.77
2018-02-24T19:24:33.067Z,5.60
2018-02-24T19:27:03.006Z,7.90
2018-02-24T19:29:31.433Z,8.85
2018-02-24T19:32:00.032Z,6.03
2018-02-24T19:34:28.701Z,9.10
2018-02-24T19:36:57.155Z,8.95
2018-02-24T19:39:25.935Z,12.80
2018-02-24T19:41:54.524Z,15.27
2018-02-24T19:44:22.905Z,29.92
2018-02-24T19:46:51.323Z,30.10
2018-02-24T19:49:19.997Z,138.52
2018-02-24T19:51:48.406Z,84.78
2018-02-24T19:54:16.792Z,126.05
2018-02-24T19:56:45.250Z,86.53
2018-02-24T19:59:13.756Z,48.83
2018-02-24T20:01:42.968Z,18.92
2018-02-24T20:04:12.144Z,9.68
2018-02-24T20:06:40.612Z,6.50
2018-02-24T20:09:09.028Z,4.72
2018-02-24T20:11:37.458Z,4.87
2018-02-24T20:14:06.622Z,4.35
2018-02-24T20:16:35.015Z,5.43
2018-02-24T20:19:03.443Z,5.65
2018-02-24T20:21:31.891Z,3.90
2018-02-24T20:24:00.441Z,6.12
2018-02-24T20:26:28.869Z,30.23
2018-02-24T20:28:57.308Z,25.48
2018-02-24T20:31:25.874Z,13.77
2018-02-24T20:33:55.101Z,13.62
2018-02-24T20:36:23.497Z,8.48
2018-02-24T20:38:51.911Z,7.12
2018-02-24T20:41:20.376Z,4.47
2018-02-24T20:43:48.821Z,4.55
2018-02-24T20:46:17.279Z,2.80
2018-02-24T20:48:46.663Z,3.75
2018-02-24T20:51:15.083Z,5.55
2018-02-24T20:53:43.575Z,5.12
2018-02-24T20:56:11.987Z,4.20
2018-02-24T20:58:40.424Z,4.12
2018-02-24T21:01:08.829Z,2.80
2018-02-24T21:03:37.262Z,4.70
2018-02-24T21:06:06.160Z,4.53
2018-02-24T21:08:34.672Z,3.78
2018-02-24T21:11:03.158Z,4.47
2018-02-24T21:13:31.575Z,3.45
2018-02-24T21:16:00.138Z,3.15
2018-02-24T21:18:28.722Z,3.35
2018-02-24T21:20:57.940Z,3.25
2018-02-24T21:23:27.712Z,3.28
2018-02-24T21:25:56.114Z,3.83
2018-02-24T21:28:25.294Z,4.50
2018-02-24T21:30:55.201Z,4.97
2018-02-24T21:36:18.591Z,3.95
2018-02-24T21:38:57.265Z,3.05
2018-02-24T21:41:25.744Z,3.33
2018-02-24T21:43:54.289Z,4.10
2018-02-24T21:46:23.453Z,3.60
2018-02-24T21:48:51.855Z,4.00
2018-02-24T21:51:23.117Z,3.60
2018-02-24T21:53:53.752Z,3.70
2018-02-24T21:56:22.206Z,3.25
2018-02-24T21:58:50.657Z,3.10
2018-02-24T22:01:19.053Z,3.15
2018-02-24T22:03:47.793Z,2.22
2018-02-24T22:06:22.202Z,13.18
2018-02-24T22:08:54.937Z,4.80
2018-02-24T22:11:23.419Z,3.28
2018-02-24T22:14:03.121Z,3.55
2018-02-24T22:16:31.588Z,3.20
2018-02-24T22:19:00.759Z,4.10
2018-02-24T22:21:29.126Z,3.60
2018-02-24T22:23:57.640Z,3.62
2018-02-24T22:26:26.235Z,3.25
2018-02-24T22:28:55.483Z,4.68
2018-02-24T22:31:23.855Z,3.50
2018-02-24T22:33:52.274Z,6.70
2018-02-24T22:36:20.764Z,4.00
2018-02-24T22:38:49.173Z,10.00
2018-02-24T22:41:17.916Z,31.80
2018-02-24T22:43:46.328Z,3.50
2018-02-24T22:46:15.524Z,3.53
2018-02-24T22:48:50.031Z,5.50
2018-02-24T22:51:18.470Z,6.97
2018-02-24T22:53:46.868Z,5.95
2018-02-24T22:56:15.373Z,3.40
2018-02-24T22:58:44.647Z,2.65
2018-02-24T23:01:13.216Z,3.00
2018-02-24T23:03:41.615Z,2.65
2018-02-24T23:06:10.054Z,2.55
2018-02-24T23:08:38.426Z,2.55
2018-02-24T23:11:06.825Z,2.60
2018-02-24T23:13:35.235Z,2.83
2018-02-24T23:16:03.626Z,2.60
2018-02-24T23:18:32.056Z,2.37
2018-02-24T23:21:00.448Z,3.00
2018-02-24T23:23:28.838Z,3.00
2018-02-24T23:25:57.197Z,2.70
2018-02-24T23:28:25.574Z,2.87
2018-02-24T23:30:54.283Z,3.28
2018-02-24T23:33:22.738Z,2.55
2018-02-24T23:35:51.254Z,3.75
2018-02-24T23:38:19.706Z,3.30
2018-02-24T23:40:48.225Z,2.58
2018-02-24T23:43:16.612Z,3.85
2018-02-24T23:45:45.006Z,3.60
2018-02-24T23:48:13.402Z,2.65
2018-02-24T23:50:42.582Z,3.15
2018-02-24T23:53:10.972Z,3.40
2018-02-24T23:55:40.152Z,3.67
2018-02-24T23:58:08.699Z,3.47
